KSFZ

North Central State Airport

Pawtucket, Rhode Island, USA
METAR KSFZ 182312Z AUTO 06004KT 10SM SCT007 BKN015 23/22 A2983 RMK AO2
Observed Flight Rules
Aug-18 @ 23:12 UTC (33 minutes ago) Marginal Visual Flight Rules
Wind Visibility Clouds
60° at 4 knots 10 miles
  • Scattered at 700' AGL
  • Broken at 1,500' AGL
Temperatures Readings
Current 23°C / 73°F
Dewpoint 22°C / 72°F
Humidity 94%
Altimeter 29.83" Hg
Pressure 1010 hPa
Elevation 134
METAR KSFZ 182312Z AUTO 06004KT 10SM SCT007 BKN015 23/22 A2983 RMK AO2
Observed Flight Rules
Aug-18 @ 23:12 UTC
(33 minutes ago)
MVFR
Wind Visibility
60° at 4 knots 10 miles
Clouds
  • Scattered at 700' AGL
  • Broken at 1,500' AGL
Temperature Dewpoint
23°C / 73°F 22°C / 72°F
Humidity Altimeter Pressure
94% 29.83" Hg 1010 hPa